Time;durP1;ratioP1;P1;durP2;ratioP2;P2;SDS_P1;SDS_P2;PMS_P1;PMS_P2;Temp;Humidity;BMP_temperature;BMP_pressure;BME280_temperature;BME280_humidity;BME280_pressure;Samples;Min_cycle;Max_cycle;Signal;HPM_P1;HPM_P2
2022/08/15 00:00:33;;;;;;;10.73;9.68;;;24.60;79.50;;;;;;4969090;28;20074;-76
2022/08/15 00:03:00;;;;;;;9.57;8.68;;;24.50;79.40;;;;;;4978031;28;20122;-76
2022/08/15 00:05:26;;;;;;;9.70;8.70;;;24.50;79.50;;;;;;4973244;28;20038;-76
2022/08/15 00:07:53;;;;;;;11.45;9.40;;;24.50;79.50;;;;;;4962436;28;20027;-76
2022/08/15 00:10:21;;;;;;;10.95;9.85;;;24.50;79.50;;;;;;4969451;28;20027;-76
2022/08/15 00:12:48;;;;;;;10.55;9.55;;;24.50;79.60;;;;;;4987667;28;20059;-76
2022/08/15 00:15:16;;;;;;;10.07;9.10;;;24.50;79.50;;;;;;4972517;28;20478;-76
2022/08/15 00:17:42;;;;;;;10.90;9.85;;;24.50;79.50;;;;;;4971536;28;20113;-77
2022/08/15 00:20:10;;;;;;;10.00;9.02;;;24.50;79.50;;;;;;4972516;28;20027;-76
2022/08/15 00:22:44;;;;;;;9.23;8.38;;;24.50;79.60;;;;;;4971497;28;20121;-76
2022/08/15 00:25:10;;;;;;;10.20;9.18;;;24.50;79.70;;;;;;4969210;28;20110;-76
2022/08/15 00:27:36;;;;;;;9.85;8.93;;;24.50;79.70;;;;;;4985879;28;20018;-76
2022/08/15 00:30:04;;;;;;;9.88;8.88;;;24.50;79.70;;;;;;4982962;28;20026;-76
2022/08/15 00:32:34;;;;;;;11.43;9.43;;;24.50;79.70;;;;;;4978565;28;20089;-76
2022/08/15 00:35:00;;;;;;;9.52;8.63;;;24.50;79.70;;;;;;4976362;28;20031;-76
2022/08/15 00:37:26;;;;;;;9.23;8.18;;;24.50;79.70;;;;;;4969679;28;20026;-76
2022/08/15 00:39:52;;;;;;;9.88;8.93;;;24.50;79.70;;;;;;4976626;28;20043;-76
2022/08/15 00:42:23;;;;;;;10.13;9.13;;;24.50;79.80;;;;;;4967982;28;21816;-77
2022/08/15 00:44:49;;;;;;;8.68;7.88;;;24.50;79.80;;;;;;4972121;28;20035;-76
2022/08/15 00:47:18;;;;;;;10.00;9.07;;;24.50;79.90;;;;;;4989817;28;20085;-76
2022/08/15 00:49:46;;;;;;;9.38;8.48;;;24.40;79.90;;;;;;4979553;28;20082;-76
2022/08/15 00:52:26;;;;;;;10.20;9.20;;;24.40;79.90;;;;;;4973191;28;20050;-76
2022/08/15 00:55:08;;;;;;;8.63;7.80;;;24.50;79.90;;;;;;4976670;28;20035;-77
2022/08/15 00:57:37;;;;;;;10.90;9.00;;;24.50;79.90;;;;;;4973202;28;20077;-77
2022/08/15 01:00:14;;;;;;;8.65;7.85;;;24.40;79.90;;;;;;4972465;28;20494;-77
2022/08/15 01:02:41;;;;;;;9.15;8.35;;;24.50;80.00;;;;;;4982631;28;20034;-76
2022/08/15 01:05:11;;;;;;;9.50;8.60;;;24.40;80.00;;;;;;4973198;28;20109;-77
2022/08/15 01:07:37;;;;;;;9.20;8.30;;;24.40;80.00;;;;;;4955207;28;20058;-77
2022/08/15 01:10:06;;;;;;;8.77;7.97;;;24.40;80.00;;;;;;4981232;28;20101;-77
2022/08/15 01:12:32;;;;;;;8.43;7.65;;;24.40;80.10;;;;;;4972812;28;20034;-76
2022/08/15 01:15:05;;;;;;;10.15;9.15;;;24.40;80.00;;;;;;4974768;28;20038;-77
2022/08/15 01:17:32;;;;;;;9.85;8.80;;;24.40;80.00;;;;;;4973708;28;20034;-77
2022/08/15 01:20:09;;;;;;;8.60;7.65;;;24.40;80.00;;;;;;4974570;28;20031;-76
2022/08/15 01:23:02;;;;;;;9.68;8.75;;;24.40;80.10;;;;;;4972284;28;20026;-76
2022/08/15 01:25:42;;;;;;;8.68;7.88;;;24.40;80.10;;;;;;4970218;28;20070;-76
2022/08/15 01:28:14;;;;;;;8.80;8.00;;;24.40;80.10;;;;;;4972602;28;20117;-77
2022/08/15 01:31:03;;;;;;;8.25;7.45;;;24.40;80.10;;;;;;4974128;28;20023;-76
2022/08/15 01:33:31;;;;;;;9.77;8.57;;;24.40;80.00;;;;;;4971888;28;20029;-76
2022/08/15 01:35:58;;;;;;;9.40;8.50;;;24.40;80.00;;;;;;4970636;28;20345;-77
2022/08/15 01:38:36;;;;;;;9.75;8.85;;;24.40;80.00;;;;;;4975968;28;20061;-77
2022/08/15 01:41:21;;;;;;;10.02;9.02;;;24.30;80.00;;;;;;4974318;28;20085;-77
2022/08/15 01:44:18;;;;;;;9.45;8.55;;;24.30;80.00;;;;;;4988729;28;20572;-77
2022/08/15 01:47:02;;;;;;;9.82;8.10;;;24.30;80.00;;;;;;4972192;28;20035;-77
2022/08/15 01:49:41;;;;;;;;;;;24.30;80.10;;;;;;4981077;28;20026;-77
2022/08/15 01:52:08;;;;;;;9.30;8.40;;;24.30;80.00;;;;;;4970714;28;19910;-77
2022/08/15 01:54:39;;;;;;;9.65;8.75;;;24.30;80.10;;;;;;4971458;28;20041;-77
2022/08/15 01:57:05;;;;;;;8.75;7.95;;;24.20;80.20;;;;;;4973842;28;20034;-77
2022/08/15 01:59:32;;;;;;;9.25;8.40;;;24.20;80.20;;;;;;4977543;28;20027;-77
2022/08/15 02:02:02;;;;;;;9.95;8.90;;;24.20;80.20;;;;;;4975219;28;20031;-77
2022/08/15 02:04:31;;;;;;;9.27;8.38;;;24.20;80.20;;;;;;4992310;28;20406;-77
2022/08/15 02:06:59;;;;;;;9.25;8.35;;;24.20;80.20;;;;;;4950496;28;20524;-77
2022/08/15 02:09:26;;;;;;;8.90;8.10;;;24.20;80.20;;;;;;5000268;28;20086;-77
2022/08/15 02:11:52;;;;;;;9.80;8.35;;;24.20;80.20;;;;;;4979650;28;20082;-77
2022/08/15 02:14:20;;;;;;;8.50;7.70;;;24.20;80.20;;;;;;4970470;28;20035;-77
2022/08/15 02:16:47;;;;;;;10.15;8.65;;;24.20;80.30;;;;;;4974718;28;20030;-77
2022/08/15 02:19:13;;;;;;;7.93;7.13;;;24.20;80.30;;;;;;4974261;28;20026;-77
2022/08/15 02:21:45;;;;;;;9.02;8.13;;;24.20;80.30;;;;;;4973597;28;20031;-76
2022/08/15 02:24:23;;;;;;;9.27;8.40;;;24.20;80.30;;;;;;4988738;28;20110;-77
2022/08/15 02:26:51;;;;;;;8.10;7.30;;;24.20;80.40;;;;;;4983575;28;20101;-76
2022/08/15 02:29:19;;;;;;;8.82;8.02;;;24.20;80.30;;;;;;4977064;28;20034;-77
2022/08/15 02:31:45;;;;;;;8.35;7.53;;;24.10;80.20;;;;;;4984853;28;20553;-77
2022/08/15 02:34:11;;;;;;;8.63;7.82;;;24.10;80.10;;;;;;4982551;28;20079;-77
2022/08/15 02:36:38;;;;;;;7.60;6.90;;;24.20;80.20;;;;;;4977630;28;20512;-77
2022/08/15 02:39:08;;;;;;;8.40;7.57;;;24.10;80.10;;;;;;4975309;28;20092;-76
2022/08/15 02:41:38;;;;;;;8.23;7.30;;;24.10;80.20;;;;;;4989342;28;20531;-77
2022/08/15 02:44:05;;;;;;;8.90;8.05;;;24.10;80.20;;;;;;4970334;28;20178;-77
2022/08/15 02:46:30;;;;;;;9.23;8.05;;;24.10;80.20;;;;;;4991549;28;20099;-77
2022/08/15 02:48:58;;;;;;;11.25;7.60;;;24.10;80.20;;;;;;4971342;28;20042;-76
2022/08/15 02:51:26;;;;;;;8.15;7.45;;;24.10;80.20;;;;;;4967088;28;20114;-76
2022/08/15 02:53:52;;;;;;;7.72;7.03;;;24.10;80.20;;;;;;4971016;28;20031;-76
2022/08/15 02:56:22;;;;;;;7.70;7.00;;;24.10;80.40;;;;;;4978979;28;20037;-77
2022/08/15 02:58:49;;;;;;;9.05;8.25;;;24.10;80.30;;;;;;4969988;28;20109;-77
2022/08/15 03:01:16;;;;;;;7.80;7.10;;;24.10;80.20;;;;;;4966724;28;20098;-77
2022/08/15 03:03:49;;;;;;;8.55;7.75;;;24.10;80.20;;;;;;4979152;28;20097;-76
2022/08/15 03:06:18;;;;;;;8.90;7.40;;;24.00;80.10;;;;;;4970499;28;20027;-76
2022/08/15 03:08:45;;;;;;;8.63;7.22;;;24.10;80.20;;;;;;4972616;28;20046;-77
2022/08/15 03:11:11;;;;;;;9.10;7.75;;;24.10;80.20;;;;;;4970180;28;20066;-77
2022/08/15 03:13:38;;;;;;;9.27;7.50;;;24.00;80.20;;;;;;4972822;28;20054;-77
2022/08/15 03:16:05;;;;;;;8.45;7.53;;;24.00;80.20;;;;;;4977114;28;20094;-76
2022/08/15 03:18:33;;;;;;;8.25;6.90;;;24.00;80.20;;;;;;4973745;28;20126;-76
2022/08/15 03:21:01;;;;;;;8.05;7.28;;;24.00;80.30;;;;;;4977435;28;20030;-76
2022/08/15 03:23:32;;;;;;;8.23;7.43;;;24.00;80.30;;;;;;4974158;28;20034;-77
2022/08/15 03:26:00;;;;;;;7.97;7.18;;;24.00;80.30;;;;;;4971246;28;20349;-77
2022/08/15 03:28:29;;;;;;;9.27;8.38;;;24.00;80.20;;;;;;4979946;28;20033;-76
2022/08/15 03:30:56;;;;;;;7.18;6.47;;;24.00;80.30;;;;;;4991461;28;20038;-76
2022/08/15 03:33:23;;;;;;;12.38;7.40;;;24.00;80.30;;;;;;4970833;28;20033;-77
2022/08/15 03:35:50;;;;;;;7.80;7.10;;;24.00;80.40;;;;;;4971432;28;20034;-77
2022/08/15 03:38:17;;;;;;;7.35;6.65;;;24.00;80.40;;;;;;4974344;28;20030;-77
2022/08/15 03:40:46;;;;;;;7.25;6.55;;;24.00;80.40;;;;;;4973609;28;20502;-77
2022/08/15 03:43:22;;;;;;;8.10;7.30;;;24.00;80.40;;;;;;4970023;28;20041;-77
2022/08/15 03:45:51;;;;;;;8.20;6.72;;;24.00;80.40;;;;;;4971287;28;20031;-77
2022/08/15 03:48:19;;;;;;;8.32;7.40;;;23.90;80.40;;;;;;4973466;28;20084;-77
2022/08/15 03:50:45;;;;;;;8.52;6.63;;;23.90;80.40;;;;;;4970811;28;20035;-77
2022/08/15 03:53:11;;;;;;;7.32;6.50;;;24.00;80.50;;;;;;4971469;28;20390;-77
2022/08/15 03:55:40;;;;;;;7.82;7.03;;;23.90;81.00;;;;;;4970537;28;20144;-77
2022/08/15 03:58:07;;;;;;;7.32;6.63;;;23.90;80.80;;;;;;4972269;28;20505;-77
2022/08/15 04:00:37;;;;;;;7.30;6.68;;;23.90;80.70;;;;;;4972838;28;20023;-77
2022/08/15 04:03:12;;;;;;;6.32;5.72;;;24.00;80.80;;;;;;4975703;28;20110;-77
2022/08/15 04:05:38;;;;;;;8.77;6.40;;;23.90;80.70;;;;;;4977155;28;20474;-77
2022/08/15 04:08:06;;;;;;;7.88;7.07;;;23.90;80.70;;;;;;4986730;28;20042;-77
2022/08/15 04:10:36;;;;;;;7.80;6.63;;;24.00;80.60;;;;;;4977557;28;20030;-77
2022/08/15 04:13:06;;;;;;;7.93;6.95;;;23.90;80.50;;;;;;4995056;28;20023;-77
2022/08/15 04:15:32;;;;;;;7.75;7.05;;;23.90;80.70;;;;;;4984603;28;20077;-77
2022/08/15 04:17:59;;;;;;;7.53;6.82;;;23.80;80.70;;;;;;4983939;28;20050;-77
2022/08/15 04:20:26;;;;;;;8.00;7.25;;;23.90;80.80;;;;;;4971762;28;20386;-77
2022/08/15 04:22:51;;;;;;;9.07;8.02;;;23.90;80.90;;;;;;4987181;28;20033;-77
2022/08/15 04:25:27;;;;;;;8.38;7.57;;;23.80;80.80;;;;;;4976725;28;20030;-77
2022/08/15 04:28:03;;;;;;;7.72;6.97;;;23.80;80.90;;;;;;4974656;28;20037;-77
2022/08/15 04:30:37;;;;;;;8.13;7.32;;;23.80;80.90;;;;;;4977128;28;20401;-76
2022/08/15 04:33:22;;;;;;;7.32;6.63;;;23.80;80.90;;;;;;4979953;28;20027;-76
2022/08/15 04:36:02;;;;;;;8.68;7.78;;;23.80;81.00;;;;;;4974747;28;20029;-77
2022/08/15 04:38:28;;;;;;;7.43;6.72;;;23.80;80.90;;;;;;4974254;28;21226;-76
2022/08/15 04:40:54;;;;;;;8.32;7.53;;;23.80;80.90;;;;;;4975831;28;20031;-77
2022/08/15 04:43:22;;;;;;;7.60;6.72;;;23.80;80.90;;;;;;4977106;28;20023;-77
2022/08/15 04:45:49;;;;;;;7.88;7.13;;;23.80;81.10;;;;;;4977489;28;20035;-77
2022/08/15 04:48:15;;;;;;;9.73;7.60;;;23.80;81.30;;;;;;4977770;28;20589;-77
2022/08/15 04:50:44;;;;;;;10.15;7.75;;;23.80;81.10;;;;;;4981141;28;20034;-77
2022/08/15 04:53:11;;;;;;;7.90;6.78;;;23.70;81.10;;;;;;4974276;28;20035;-77
2022/08/15 04:55:41;;;;;;;7.40;6.70;;;23.80;81.10;;;;;;4970804;28;20019;-77
2022/08/15 04:58:09;;;;;;;7.35;6.65;;;23.80;81.20;;;;;;4973146;28;20027;-77
2022/08/15 05:00:40;;;;;;;10.82;7.53;;;23.80;81.30;;;;;;4971718;28;20042;-77
2022/08/15 05:03:18;;;;;;;7.70;6.90;;;23.80;81.30;;;;;;4975631;28;20023;-77
2022/08/15 05:05:48;;;;;;;8.57;6.93;;;23.70;81.30;;;;;;4969776;28;20082;-77
2022/08/15 05:08:15;;;;;;;7.75;7.05;;;23.70;81.30;;;;;;4971031;28;20030;-77
2022/08/15 05:10:42;;;;;;;7.10;6.00;;;23.70;81.30;;;;;;4972596;28;20533;-76
2022/08/15 05:13:19;;;;;;;8.00;6.70;;;23.70;81.30;;;;;;4973878;28;20030;-77
2022/08/15 05:15:47;;;;;;;10.27;7.00;;;23.70;81.40;;;;;;4972010;28;20073;-77
2022/08/15 05:18:13;;;;;;;7.20;6.50;;;23.70;81.40;;;;;;4974484;28;20029;-77
2022/08/15 05:20:41;;;;;;;7.10;6.45;;;23.70;81.50;;;;;;4970507;28;20031;-76
2022/08/15 05:23:10;;;;;;;7.40;6.38;;;23.70;81.80;;;;;;4980592;28;20104;-76
2022/08/15 05:25:39;;;;;;;7.78;6.97;;;23.70;81.70;;;;;;4969417;28;20077;-77
2022/08/15 05:28:06;;;;;;;7.60;6.90;;;23.70;81.60;;;;;;4977830;28;20110;-77
2022/08/15 05:30:32;;;;;;;8.35;7.53;;;23.70;81.40;;;;;;4972984;28;20034;-76
2022/08/15 05:33:08;;;;;;;8.80;7.47;;;23.70;81.40;;;;;;4985138;28;20061;-77
2022/08/15 05:35:35;;;;;;;9.27;6.93;;;23.70;81.60;;;;;;4972367;28;20080;-77
2022/08/15 05:38:06;;;;;;;7.32;6.60;;;23.70;81.60;;;;;;4974715;28;20511;-77
2022/08/15 05:40:45;;;;;;;6.43;5.82;;;23.70;81.80;;;;;;4985849;28;20030;-76
2022/08/15 05:43:18;;;;;;;8.52;7.50;;;23.70;81.80;;;;;;4978450;28;20026;-76
2022/08/15 05:46:16;;;;;;;7.40;6.60;;;23.70;81.80;;;;;;4966548;28;20576;-77
2022/08/15 05:48:43;;;;;;;7.28;6.57;;;23.70;81.80;;;;;;4956524;28;20031;-77
2022/08/15 05:51:20;;;;;;;7.20;6.38;;;23.70;81.90;;;;;;4977801;28;20039;-76
2022/08/15 05:54:09;;;;;;;7.45;5.68;;;23.70;81.90;;;;;;4973732;28;20035;-76
2022/08/15 05:56:53;;;;;;;7.05;6.35;;;23.70;81.90;;;;;;4942399;28;20083;-76
2022/08/15 05:59:23;;;;;;;7.80;7.00;;;23.70;81.90;;;;;;4974599;28;20026;-76
2022/08/15 06:01:55;;;;;;;10.45;7.10;;;23.70;82.00;;;;;;4976203;28;20405;-77
2022/08/15 06:04:58;;;;;;;8.87;7.03;;;23.70;82.10;;;;;;4973116;28;20031;-77
2022/08/15 06:07:26;;;;;;;8.27;6.60;;;23.70;82.00;;;;;;4974231;28;20469;-77
2022/08/15 06:09:57;;;;;;;9.90;6.82;;;23.70;82.10;;;;;;4976936;28;20037;-76
2022/08/15 06:12:47;;;;;;;7.20;6.50;;;23.60;82.10;;;;;;4975226;28;20034;-77
2022/08/15 06:15:39;;;;;;;7.82;7.03;;;23.70;82.20;;;;;;4975501;28;20041;-76
2022/08/15 06:18:09;;;;;;;7.57;6.25;;;23.60;82.10;;;;;;4967474;28;20117;-77
2022/08/15 06:20:41;;;;;;;9.70;6.90;;;23.70;82.20;;;;;;4972376;28;20045;-77
2022/08/15 06:23:44;;;;;;;6.72;6.13;;;23.70;82.20;;;;;;4975114;28;20031;-76
2022/08/15 06:27:07;;;;;;;8.10;7.30;;;23.70;82.30;;;;;;4971273;28;20027;-76
2022/08/15 06:29:51;;;;;;;9.73;5.97;;;23.60;82.20;;;;;;4943610;28;20793;-76
2022/08/15 06:32:37;;;;;;;6.60;5.93;;;23.70;82.30;;;;;;4949201;28;20038;-76
2022/08/15 06:35:09;;;;;;;7.78;5.78;;;23.60;82.30;;;;;;4958590;28;20117;-76
2022/08/15 06:38:14;;;;;;;7.47;6.68;;;23.60;82.30;;;;;;4985583;28;20026;-76
2022/08/15 06:41:03;;;;;;;8.63;6.15;;;23.60;82.40;;;;;;4974261;28;20030;-76
2022/08/15 06:43:29;;;;;;;6.82;6.13;;;23.60;82.40;;;;;;4974661;28;20070;-76
2022/08/15 06:45:59;;;;;;;8.02;5.72;;;23.60;82.40;;;;;;4977503;28;20019;-76
2022/08/15 06:48:29;;;;;;;6.40;5.50;;;23.70;82.50;;;;;;4965343;28;20045;-76
2022/08/15 06:50:59;;;;;;;11.65;5.90;;;23.70;82.50;;;;;;4971427;28;20029;-77
2022/08/15 06:53:54;;;;;;;10.23;6.13;;;23.70;82.50;;;;;;4972437;28;20031;-77
2022/08/15 06:56:27;;;;;;;7.82;6.95;;;23.70;82.60;;;;;;4976885;28;20032;-76
2022/08/15 06:58:59;;;;;;;8.23;6.32;;;23.70;82.80;;;;;;4991093;28;20107;-76
2022/08/15 07:01:49;;;;;;;6.78;6.07;;;23.70;82.50;;;;;;4973748;28;20037;-76
2022/08/15 07:04:27;;;;;;;6.55;5.85;;;23.70;82.50;;;;;;4990662;28;20038;-76
2022/08/15 07:07:01;;;;;;;6.72;6.05;;;23.60;82.50;;;;;;4982816;28;20034;-76
2022/08/15 07:09:37;;;;;;;9.88;6.43;;;23.70;82.60;;;;;;4988551;28;20081;-76
2022/08/15 07:12:06;;;;;;;7.00;6.30;;;23.60;82.50;;;;;;4974729;28;20077;-77
2022/08/15 07:14:39;;;;;;;7.05;6.35;;;23.70;82.60;;;;;;4978721;28;20027;-76
2022/08/15 07:17:37;;;;;;;6.05;5.13;;;23.60;82.70;;;;;;4976182;28;20054;-76
2022/08/15 07:20:06;;;;;;;6.38;5.75;;;23.60;82.60;;;;;;4981410;28;20066;-77
2022/08/15 07:22:34;;;;;;;13.27;5.93;;;23.60;82.90;;;;;;4973508;28;20019;-76
2022/08/15 07:25:00;;;;;;;6.30;5.70;;;23.70;83.20;;;;;;4970505;28;20053;-76
2022/08/15 07:27:32;;;;;;;6.00;5.40;;;23.70;84.60;;;;;;4971524;28;20485;-75
2022/08/15 07:30:21;;;;;;;6.13;5.25;;;23.70;84.00;;;;;;4979671;28;20158;-76
2022/08/15 07:32:55;;;;;;;9.73;5.53;;;23.70;83.50;;;;;;4977823;28;20034;-76
2022/08/15 07:35:34;;;;;;;7.60;6.32;;;23.70;83.70;;;;;;4992805;28;20081;-77
2022/08/15 07:38:03;;;;;;;6.35;5.55;;;23.60;83.40;;;;;;4970990;28;20447;-77
2022/08/15 07:40:40;;;;;;;9.73;5.82;;;23.60;83.20;;;;;;4968769;28;20037;-76
2022/08/15 07:43:28;;;;;;;8.10;5.68;;;23.60;83.30;;;;;;4965092;28;20564;-76
2022/08/15 07:46:18;;;;;;;9.00;6.00;;;23.70;84.00;;;;;;4970230;28;20026;-76
2022/08/15 07:48:55;;;;;;;8.27;5.80;;;23.60;83.60;;;;;;4972674;28;20050;-76
2022/08/15 07:51:28;;;;;;;5.85;4.95;;;23.60;83.60;;;;;;4974511;28;20023;-76
2022/08/15 07:54:01;;;;;;;8.35;5.80;;;23.60;83.60;;;;;;4971280;28;20122;-76
2022/08/15 07:56:30;;;;;;;7.53;6.10;;;23.60;83.70;;;;;;4971641;28;20494;-76
2022/08/15 07:59:22;;;;;;;9.48;6.60;;;23.60;83.70;;;;;;4962337;28;20037;-76
2022/08/15 08:01:53;;;;;;;10.00;6.82;;;23.60;83.30;;;;;;4969008;28;20030;-77
2022/08/15 08:04:27;;;;;;;9.05;5.70;;;23.60;83.30;;;;;;4977791;28;20039;-77
2022/08/15 08:07:04;;;;;;;13.32;6.13;;;23.60;83.40;;;;;;4971179;28;20093;-77
2022/08/15 08:09:38;;;;;;;8.80;6.35;;;23.60;83.40;;;;;;4969577;28;20090;-76
2022/08/15 08:12:25;;;;;;;6.82;5.32;;;23.60;84.00;;;;;;4984520;28;20035;-76
2022/08/15 08:15:20;;;;;;;10.75;5.30;;;23.60;84.20;;;;;;4967517;28;20038;-76
2022/08/15 08:18:06;;;;;;;8.00;5.68;;;23.60;84.00;;;;;;4968871;28;20039;-77
2022/08/15 08:20:38;;;;;;;10.57;6.35;;;23.60;83.80;;;;;;4970683;28;20027;-77
2022/08/15 08:23:32;;;;;;;10.02;5.95;;;23.60;84.00;;;;;;4989382;28;20041;-76
2022/08/15 08:26:18;;;;;;;8.40;5.50;;;23.60;84.00;;;;;;4975567;28;20485;-77
2022/08/15 08:29:03;;;;;;;10.32;6.00;;;23.60;84.00;;;;;;4977655;28;20058;-77
2022/08/15 08:32:12;;;;;;;12.88;6.43;;;23.60;83.60;;;;;;4970656;28;20069;-76
2022/08/15 08:34:55;;;;;;;6.55;5.90;;;23.60;83.50;;;;;;4978169;28;20023;-76
2022/08/15 08:37:48;;;;;;;9.75;6.90;;;23.60;83.40;;;;;;4966396;28;20047;-77
2022/08/15 08:43:42;;;;;;;8.05;6.57;;;23.60;83.50;;;;;;4970135;28;20049;-76
2022/08/15 08:46:50;;;;;;;9.90;6.93;;;23.60;83.60;;;;;;4966488;28;20039;-76
2022/08/15 08:49:39;;;;;;;9.02;6.13;;;23.60;83.60;;;;;;4966405;28;20061;-76
2022/08/15 08:52:17;;;;;;;9.23;6.70;;;23.60;83.60;;;;;;4968714;28;20126;-76
2022/08/15 08:54:57;;;;;;;8.10;6.18;;;23.60;83.40;;;;;;4983218;28;20397;-76
2022/08/15 08:57:28;;;;;;;8.90;7.10;;;23.60;83.40;;;;;;4978736;28;20057;-77
2022/08/15 09:00:06;;;;;;;10.10;6.88;;;23.60;83.30;;;;;;4975942;28;20371;-76
2022/08/15 09:03:02;;;;;;;9.32;6.63;;;23.60;83.40;;;;;;4989760;28;20044;-76
2022/08/15 09:05:30;;;;;;;9.02;6.70;;;23.60;83.40;;;;;;4990871;28;20121;-76
2022/08/15 09:08:02;;;;;;;7.90;6.75;;;23.60;83.30;;;;;;4978337;28;20533;-76
2022/08/15 09:10:34;;;;;;;8.48;6.35;;;23.60;83.30;;;;;;4979788;28;20486;-76
2022/08/15 09:15:51;;;;;;;7.55;6.57;;;23.60;83.10;;;;;;4977490;28;20038;-76
2022/08/15 09:18:33;;;;;;;7.63;5.93;;;23.60;83.20;;;;;;4981567;28;20023;-76
2022/08/15 09:20:59;;;;;;;6.80;5.85;;;23.60;83.20;;;;;;4973433;28;20023;-76
2022/08/15 09:23:32;;;;;;;7.53;5.72;;;23.60;83.10;;;;;;4975778;28;20030;-76
2022/08/15 09:26:37;;;;;;;9.57;6.35;;;23.60;83.20;;;;;;4973071;28;20030;-76
2022/08/15 09:29:13;;;;;;;7.63;6.70;;;23.60;83.20;;;;;;4976346;28;20030;-76
2022/08/15 09:31:41;;;;;;;7.32;6.55;;;23.60;83.20;;;;;;4973257;28;20118;-76
2022/08/15 09:34:25;;;;;;;6.50;5.90;;;23.50;83.10;;;;;;4980595;28;20053;-76
2022/08/15 09:36:57;;;;;;;8.90;7.70;;;23.50;83.20;;;;;;4978542;28;20030;-76
2022/08/15 09:39:38;;;;;;;7.93;5.68;;;23.50;83.20;;;;;;4972199;28;20030;-76
2022/08/15 09:42:22;;;;;;;7.93;6.50;;;23.50;83.20;;;;;;4975367;28;20510;-77
2022/08/15 09:45:15;;;;;;;6.50;5.45;;;23.50;83.30;;;;;;4982917;28;20061;-76
2022/08/15 09:48:03;;;;;;;7.40;6.57;;;23.50;83.30;;;;;;4974160;28;20034;-76
2022/08/15 09:50:59;;;;;;;7.35;6.25;;;23.50;83.30;;;;;;4967971;28;20784;-76
2022/08/15 09:54:06;;;;;;;8.15;6.22;;;23.50;83.30;;;;;;4975911;28;20159;-76
2022/08/15 09:56:36;;;;;;;13.05;6.32;;;23.50;83.30;;;;;;4977440;28;20023;-76
2022/08/15 09:59:02;;;;;;;8.10;6.70;;;23.50;83.30;;;;;;4977405;28;20478;-77
2022/08/15 10:01:31;;;;;;;8.13;5.72;;;23.50;83.30;;;;;;4976951;28;20034;-76
2022/08/15 10:04:08;;;;;;;10.05;6.75;;;23.50;83.40;;;;;;4979338;28;20090;-76
2022/08/15 10:06:57;;;;;;;7.75;6.10;;;23.50;83.40;;;;;;4971424;28;20081;-77
2022/08/15 10:09:32;;;;;;;6.68;5.97;;;23.50;83.30;;;;;;4968625;28;20078;-76
2022/08/15 10:12:06;;;;;;;12.10;5.95;;;23.50;83.30;;;;;;4988345;28;20026;-76
2022/08/15 10:14:56;;;;;;;10.23;7.07;;;23.50;83.40;;;;;;4973882;28;20082;-76
2022/08/15 10:17:37;;;;;;;7.78;5.80;;;23.50;83.30;;;;;;4972846;28;20022;-76
2022/08/15 10:20:18;;;;;;;6.97;6.15;;;23.50;83.40;;;;;;4980418;28;20023;-76
2022/08/15 10:23:07;;;;;;;12.52;5.68;;;23.50;83.40;;;;;;4990345;28;20022;-76
2022/08/15 10:25:39;;;;;;;7.85;5.32;;;23.50;83.40;;;;;;4976048;28;20023;-77
2022/08/15 10:28:12;;;;;;;12.88;6.95;;;23.50;83.40;;;;;;4990453;28;20037;-76
2022/08/15 10:31:05;;;;;;;8.38;5.45;;;23.50;83.50;;;;;;4964689;28;20026;-76
2022/08/15 10:33:31;;;;;;;9.05;6.43;;;23.50;83.40;;;;;;4986841;28;20066;-76
2022/08/15 10:36:25;;;;;;;8.20;6.28;;;23.50;83.50;;;;;;4979048;28;20105;-76
2022/08/15 10:39:15;;;;;;;7.72;6.50;;;23.50;83.50;;;;;;4967405;28;20065;-77
2022/08/15 10:42:01;;;;;;;11.73;5.93;;;23.50;83.60;;;;;;4976205;28;20035;-76
2022/08/15 10:44:46;;;;;;;8.15;6.05;;;23.50;83.60;;;;;;4971606;28;20027;-76
2022/08/15 10:47:47;;;;;;;7.88;6.10;;;23.50;83.50;;;;;;4970722;28;20034;-76
2022/08/15 10:50:42;;;;;;;6.93;5.55;;;23.50;83.70;;;;;;4974199;28;20038;-77
2022/08/15 10:53:14;;;;;;;10.65;7.55;;;23.50;83.70;;;;;;4969012;28;20433;-76
2022/08/15 10:55:41;;;;;;;11.52;6.78;;;23.50;83.80;;;;;;4961945;28;20023;-76
2022/08/15 10:58:32;;;;;;;8.30;6.70;;;23.50;83.80;;;;;;4976400;28;20031;-76
2022/08/15 11:01:07;;;;;;;7.68;6.60;;;23.40;83.80;;;;;;4965162;28;20445;-77
2022/08/15 11:04:05;;;;;;;8.70;7.28;;;23.40;84.00;;;;;;4979240;28;20500;-76
2022/08/15 11:06:34;;;;;;;10.38;6.65;;;23.40;84.20;;;;;;4962827;28;20062;-76
2022/08/15 11:09:14;;;;;;;8.18;6.88;;;23.40;83.90;;;;;;4971618;28;20027;-76
2022/08/15 11:11:50;;;;;;;6.90;6.05;;;23.40;84.10;;;;;;4968095;28;20026;-77
2022/08/15 11:14:30;;;;;;;8.30;6.10;;;23.40;84.20;;;;;;4969069;28;20486;-76
2022/08/15 11:16:58;;;;;;;8.10;6.47;;;23.40;84.30;;;;;;4968952;28;20027;-77
2022/08/15 11:19:38;;;;;;;7.80;6.28;;;23.50;84.40;;;;;;4974707;28;20035;-77
2022/08/15 11:22:17;;;;;;;11.27;7.38;;;23.50;84.60;;;;;;4969700;28;20134;-77
2022/08/15 11:24:54;;;;;;;6.97;6.05;;;23.40;84.60;;;;;;4971987;28;20043;-77
2022/08/15 11:27:24;;;;;;;7.57;6.68;;;23.50;84.60;;;;;;4966382;28;20038;-76
2022/08/15 11:29:52;;;;;;;10.57;6.50;;;23.50;84.80;;;;;;4991090;28;20034;-77
2022/08/15 11:32:38;;;;;;;9.50;7.35;;;23.40;84.70;;;;;;4978307;28;20034;-76
2022/08/15 11:35:27;;;;;;;11.10;7.53;;;23.50;84.80;;;;;;4977587;28;20077;-76
2022/08/15 11:37:59;;;;;;;8.98;7.35;;;23.50;84.80;;;;;;4966329;28;20027;-77
2022/08/15 11:40:29;;;;;;;11.02;7.15;;;23.40;85.00;;;;;;4968159;28;20043;-77
2022/08/15 11:42:57;;;;;;;11.60;7.30;;;23.40;85.50;;;;;;4971419;28;20030;-76
2022/08/15 11:45:28;;;;;;;13.07;7.68;;;23.40;84.90;;;;;;4968912;28;20042;-77
2022/08/15 11:47:57;;;;;;;9.27;7.07;;;23.40;84.80;;;;;;4971464;28;20482;-76
2022/08/15 11:50:28;;;;;;;10.05;7.40;;;23.40;84.80;;;;;;4972012;28;20512;-76
2022/08/15 11:52:58;;;;;;;7.85;7.05;;;23.40;84.80;;;;;;4976541;28;20022;-76
2022/08/15 11:55:29;;;;;;;9.35;7.55;;;23.40;84.70;;;;;;4995705;28;20069;-76
2022/08/15 11:58:00;;;;;;;9.38;8.38;;;23.40;85.00;;;;;;4978465;28;20048;-77
2022/08/15 12:00:40;;;;;;;9.68;8.63;;;23.40;85.00;;;;;;4968452;28;20042;-76
2022/08/15 12:03:35;;;;;;;8.27;7.47;;;23.40;85.10;;;;;;4967387;28;20026;-76
2022/08/15 12:06:12;;;;;;;8.15;7.35;;;23.40;85.10;;;;;;4984166;28;20030;-76
2022/08/15 12:08:43;;;;;;;8.40;7.35;;;23.40;85.20;;;;;;4971612;28;20027;-76
2022/08/15 12:11:15;;;;;;;10.18;9.10;;;23.40;85.20;;;;;;4978215;28;20023;-76
2022/08/15 12:13:56;;;;;;;9.73;8.55;;;23.40;85.30;;;;;;4973164;28;20131;-77
2022/08/15 12:16:56;;;;;;;8.07;7.28;;;23.40;85.20;;;;;;4969442;28;20053;-76
2022/08/15 12:19:24;;;;;;;10.13;9.23;;;23.40;85.80;;;;;;4969507;28;20032;-76
2022/08/15 12:21:51;;;;;;;9.32;8.43;;;23.40;85.50;;;;;;4971207;28;20034;-76
2022/08/15 12:24:23;;;;;;;11.27;9.55;;;23.40;85.20;;;;;;4969560;28;20319;-76
2022/08/15 12:26:50;;;;;;;13.95;8.57;;;23.40;85.30;;;;;;4967899;28;20031;-76
2022/08/15 12:29:22;;;;;;;10.00;9.10;;;23.40;85.30;;;;;;4968533;28;20118;-76
2022/08/15 12:31:49;;;;;;;9.07;8.10;;;23.40;85.10;;;;;;4978458;28;20031;-76
2022/08/15 12:34:19;;;;;;;10.55;8.95;;;23.40;84.80;;;;;;4980487;28;20043;-76
2022/08/15 12:36:45;;;;;;;9.77;8.77;;;23.40;84.90;;;;;;4983126;28;20027;-76
2022/08/15 12:39:15;;;;;;;12.25;8.05;;;23.40;85.20;;;;;;4990487;28;20081;-76
2022/08/15 12:41:44;;;;;;;11.05;8.32;;;23.40;85.10;;;;;;4968936;28;20042;-76
2022/08/15 12:44:20;;;;;;;19.85;10.15;;;23.40;85.10;;;;;;4994794;28;20061;-76
2022/08/15 12:46:46;;;;;;;11.68;8.65;;;23.40;85.30;;;;;;4975117;28;20122;-76
2022/08/15 12:49:11;;;;;;;8.50;7.70;;;23.40;85.20;;;;;;4971321;28;20117;-76
2022/08/15 12:51:37;;;;;;;8.60;7.70;;;23.40;85.20;;;;;;4972334;28;20031;-76
2022/08/15 12:54:03;;;;;;;9.90;8.95;;;23.40;85.00;;;;;;4984087;28;20026;-76
2022/08/15 12:56:29;;;;;;;10.13;9.13;;;23.40;85.10;;;;;;4988099;28;20532;-76
2022/08/15 12:58:55;;;;;;;11.73;10.52;;;23.40;85.00;;;;;;4968693;28;20030;-76
2022/08/15 13:01:21;;;;;;;9.77;8.82;;;23.40;85.00;;;;;;4977323;28;20022;-76
2022/08/15 13:03:47;;;;;;;10.40;9.40;;;23.40;84.90;;;;;;4976268;28;20125;-76
2022/08/15 13:06:31;;;;;;;13.00;8.73;;;23.40;84.90;;;;;;4965894;28;20454;-76
2022/08/15 13:08:56;;;;;;;14.48;13.07;;;23.40;84.90;;;;;;4971789;28;20034;-76
2022/08/15 13:11:22;;;;;;;11.27;10.10;;;23.40;84.70;;;;;;4969729;28;20028;-76
2022/08/15 13:13:50;;;;;;;10.35;9.25;;;23.40;85.00;;;;;;4986495;28;20405;-76
2022/08/15 13:16:17;;;;;;;12.32;11.23;;;23.40;85.10;;;;;;4976975;28;20023;-76
2022/08/15 13:18:44;;;;;;;9.73;8.70;;;23.40;84.90;;;;;;4988685;28;20053;-76
2022/08/15 13:23:54;;;;;;;13.18;11.80;;;23.40;85.00;;;;;;4968450;28;20568;-76
2022/08/15 13:26:22;;;;;;;11.93;10.85;;;23.40;85.10;;;;;;4968329;28;20118;-76
2022/08/15 13:28:50;;;;;;;12.88;11.55;;;23.40;85.10;;;;;;4967979;28;20038;-76
2022/08/15 13:31:18;;;;;;;11.23;10.15;;;23.40;85.10;;;;;;4985530;28;20501;-76